Hyvinkään lentokentän sää

Sää nyt

Mitattu 20.4. 05:15
-5.3°, kosteus 99% (-6°)
Aurinko: 05:45 - 20:55



Lähialueen METARit

METAR EFHK 200120Z 29006KT 9999 -SN FEW022 SCT029 M04/M05 Q1002 TEMPO 7000=

METAR EFTU 200120Z AUTO 31003KT 270V350 9999 -SN OVC045 M03/M05 Q1004=

METAR EFTP 200120Z AUTO 01007KT 330V060 9999 -SN BKN008 OVC027 M04/M07 Q1003=

Sää lentopaikoilla (fmi)

Tunnin tuulihistoria

Sääennuste

KelloTHum, DpTuuli (kt)Pilvet
20.04.
05:00-4°85%, -7°330° 5(10)8/8
07:00-4°82%, -7°345° 5(10)8/8
09:00-3°73%, -9°355° 3(8)8/8
11:00-3°76%, -8°35° 2(6)8/8
13:00-2°70%, -8°320° 2(6)8/8
15:00-1°65%, -9°330° 3(8)8/8
17:0066%, -8°340° 4(9)8/8
19:00-1°67%, -8°5° 4(9)8/8
21:00-2°71%, -8°355° 5(9)7/8
23:00-2°81%, -6°355° 5(11)6/8
21.04.
02:00-3°80%, -7°15° 4(9)7/8
05:00-4°84%, -7°350° 6(12)7/8
08:00-4°80%, -8°0° 6(12)6/8
11:00-2°69%, -8°15° 5(12)8/8
14:0065%, -8°20° 5(11)8/8
17:0061%, -8°350° 5(11)6/8
20:0071%, -6°20° 5(10)7/8
23:00-1°88%, -4°345° 5(10)8/8
22.04.
03:00-2°89%, -4°355° 6(11)8/8

Tietoja kentästä